アシガバート の空港の天気 - METARとTAF

アシガバート空港 ( UTAA / ASB ) - トルクメニスタン アシガバート
飛行場実況気象(Metar)
観測時間11/27 12:00 TMT (11/27 07:00 UTC)
風向・風速東 2m/s
視程10km以上
天気現象
なし
気温12℃
湿度62%
気圧1014hPa
METARUTAA 270700Z 08004KT 030V170 9999 NSC 12/05 Q1014 R88/70D NOSIG
過去の天気等 Google飛行場航空写真 Wunderground天気予報

過去48時間のMETAR

飛行場予報(TAF)
発表時間: 11/27 09:50 TMT (11/27 04:50 UTC)
予報対象時間: 27日11時 TMT ~ 28日11時 TMT
風向・風速東南東 8m/s
視程6000m
全天の4割程度の雲 雲底高度 910m
全天の4割程度の雲 雲底高度 3050m
27日15時 TMT ~ 27日17時 TMT に徐々に
風向・風速北北東 7m/s
全天の8割程度の雲 雲底高度 910m
27日23時 TMT ~ 28日1時 TMT に徐々に
風向・風速西北西 6m/s 瞬間風速 11m/s
全天の4割程度の積乱雲 雲底高度 910m
TAF UTAA 270450Z 2706/2806 12016KT 6000 SCT030 SCT100
BECMG 2710/2712 02014KT BKN030
BECMG 2718/2720 30012G22KT SCT030CB